Time;durP1;ratioP1;P1;durP2;ratioP2;P2;SDS_P1;SDS_P2;PMS_P1;PMS_P2;Temp;Humidity;BMP_temperature;BMP_pressure;BME280_temperature;BME280_humidity;BME280_pressure;Samples;Min_cycle;Max_cycle;Signal;HPM_P1;HPM_P2
2021/07/22 00:01:39;;;;;;;;;;;24.10;55.50;;;;;;5116672;27;19928;-59
2021/07/22 00:04:06;;;;;;;;;;;24.10;55.50;;;;;;5134670;27;19930;-59
2021/07/22 00:06:33;;;;;;;;;;;24.00;55.50;;;;;;5135072;27;19923;-59
2021/07/22 00:09:00;;;;;;;;;;;24.00;55.50;;;;;;5133301;27;20316;-59
2021/07/22 00:11:27;;;;;;;;;;;24.00;55.60;;;;;;5134485;27;19923;-59
2021/07/22 00:13:54;;;;;;;;;;;24.00;55.50;;;;;;5134584;27;20324;-59
2021/07/22 00:16:21;;;;;;;;;;;24.00;55.60;;;;;;5134401;27;19924;-59
2021/07/22 00:18:48;;;;;;;;;;;24.00;55.60;;;;;;5134315;27;20448;-59
2021/07/22 00:21:15;;;;;;;;;;;24.00;55.70;;;;;;5134163;27;19923;-59
2021/07/22 00:23:42;;;;;;;;;;;24.00;55.70;;;;;;5124241;27;19923;-59
2021/07/22 00:26:09;;;;;;;;;;;24.00;55.70;;;;;;5117417;27;20449;-59
2021/07/22 00:28:36;;;;;;;;;;;24.00;55.70;;;;;;5125667;27;19982;-59
2021/07/22 00:31:05;;;;;;;;;;;24.10;55.80;;;;;;5126994;27;19924;-59
2021/07/22 00:33:32;;;;;;;;;;;24.10;55.70;;;;;;5123246;27;20344;-59
2021/07/22 00:36:05;;;;;;;;;;;24.10;55.70;;;;;;5112798;27;19927;-59
2021/07/22 00:38:32;;;;;;;;;;;24.10;55.70;;;;;;5134311;27;19924;-59
2021/07/22 00:40:59;;;;;;;;;;;24.10;55.70;;;;;;5134242;27;19972;-59
2021/07/22 00:43:26;;;;;;;;;;;24.10;55.90;;;;;;5132559;27;19973;-59
2021/07/22 00:45:53;;;;;;;;;;;24.10;55.80;;;;;;5133058;27;19923;-59
2021/07/22 00:48:20;;;;;;;;;;;24.10;56.10;;;;;;5133869;27;20442;-59
2021/07/22 00:50:47;;;;;;;;;;;24.10;55.80;;;;;;5132371;27;19984;-59
2021/07/22 00:53:14;;;;;;;;;;;24.10;55.80;;;;;;5132228;27;20336;-58
2021/07/22 00:55:41;;;;;;;;;;;24.10;55.90;;;;;;5134247;27;19923;-59
2021/07/22 00:58:08;;;;;;;;;;;24.10;55.90;;;;;;5132472;27;20382;-59
2021/07/22 01:00:35;;;;;;;;;;;24.10;56.00;;;;;;5132774;27;19923;-59
2021/07/22 01:03:02;;;;;;;;;;;24.00;55.90;;;;;;5132822;27;20438;-59
2021/07/22 01:05:30;;;;;;;;;;;24.00;56.00;;;;;;5133836;27;19947;-59
2021/07/22 01:07:57;;;;;;;;;;;24.00;56.00;;;;;;5133611;27;19927;-59
2021/07/22 01:10:24;;;;;;;;;;;24.00;56.10;;;;;;5133041;27;19930;-59
2021/07/22 01:12:51;;;;;;;;;;;24.00;56.20;;;;;;5113865;28;19985;-59
2021/07/22 01:15:18;;;;;;;;;;;24.00;56.20;;;;;;5119769;27;19930;-59
2021/07/22 01:17:46;;;;;;;;;;;24.00;56.20;;;;;;5126702;28;19928;-59
2021/07/22 01:20:23;;;;;;;;;;;24.00;56.30;;;;;;5113853;28;19923;-59
2021/07/22 01:22:52;;;;;;;;;;;24.00;56.40;;;;;;5115239;28;19943;-60
2021/07/22 01:25:19;;;;;;;;;;;24.00;56.40;;;;;;5133395;28;19998;-59
2021/07/22 01:27:46;;;;;;;;;;;24.00;56.40;;;;;;5133206;28;19927;-59
2021/07/22 01:30:14;;;;;;;;;;;23.90;56.40;;;;;;5133482;28;19923;-59
2021/07/22 01:32:41;;;;;;;;;;;23.90;56.40;;;;;;5132124;28;19923;-59
2021/07/22 01:35:09;;;;;;;;;;;23.90;56.40;;;;;;5130306;28;19935;-59
2021/07/22 01:37:43;;;;;;;;;;;23.90;56.50;;;;;;5131882;28;19927;-59
2021/07/22 01:40:11;;;;;;;;;;;23.90;56.60;;;;;;5132375;28;20009;-59
2021/07/22 01:42:38;;;;;;;;;;;23.90;56.60;;;;;;5132410;28;19935;-59
2021/07/22 01:45:06;;;;;;;;;;;23.90;56.70;;;;;;5134563;27;19931;-59
2021/07/22 01:47:34;;;;;;;;;;;23.90;56.70;;;;;;5135025;27;19973;-59
2021/07/22 01:50:02;;;;;;;;;;;23.90;56.80;;;;;;5136392;27;20325;-59
2021/07/22 01:52:29;;;;;;;;;;;23.90;56.80;;;;;;5136064;27;19924;-59
2021/07/22 01:54:55;;;;;;;;;;;23.90;56.80;;;;;;5118716;27;19923;-59
2021/07/22 01:57:22;;;;;;;;;;;23.90;56.90;;;;;;5137457;27;19976;-59
2021/07/22 01:59:49;;;;;;;;;;;23.90;56.90;;;;;;5137107;27;20306;-59
2021/07/22 02:02:16;;;;;;;;;;;23.90;56.90;;;;;;5137540;27;19935;-59
2021/07/22 02:04:44;;;;;;;;;;;23.80;56.90;;;;;;5136936;27;19952;-59
2021/07/22 02:07:11;;;;;;;;;;;23.80;56.90;;;;;;5137474;27;19984;-59
2021/07/22 02:09:39;;;;;;;;;;;23.80;57.00;;;;;;5118916;27;19930;-59
2021/07/22 02:12:06;;;;;;;;;;;23.80;57.00;;;;;;5115132;27;19923;-59
2021/07/22 02:14:33;;;;;;;;;;;23.80;57.10;;;;;;5135685;27;19923;-59
2021/07/22 02:17:00;;;;;;;;;;;23.80;57.10;;;;;;5135678;27;20390;-59
2021/07/22 02:19:27;;;;;;;;;;;23.80;57.10;;;;;;5135594;27;19993;-59
2021/07/22 02:21:54;;;;;;;;;;;23.80;57.20;;;;;;5135204;27;19976;-59
2021/07/22 02:24:21;;;;;;;;;;;23.70;57.20;;;;;;5106922;28;19946;-59
2021/07/22 02:26:48;;;;;;;;;;;23.70;57.20;;;;;;5126613;27;19970;-59
2021/07/22 02:29:15;;;;;;;;;;;23.70;57.20;;;;;;5136174;27;19929;-59
2021/07/22 02:31:42;;;;;;;;;;;23.70;57.20;;;;;;5134983;27;20346;-59
2021/07/22 02:34:09;;;;;;;;;;;23.70;57.30;;;;;;5136813;27;19924;-59
2021/07/22 02:36:36;;;;;;;;;;;23.70;57.30;;;;;;5135960;27;19924;-59
2021/07/22 02:39:03;;;;;;;;;;;23.70;57.30;;;;;;5134889;27;19923;-59
2021/07/22 02:41:32;;;;;;;;;;;23.70;57.30;;;;;;5135498;27;19973;-59
2021/07/22 02:43:59;;;;;;;;;;;23.70;57.30;;;;;;5118441;27;19923;-59
2021/07/22 02:46:26;;;;;;;;;;;23.70;57.30;;;;;;5135020;27;20272;-59
2021/07/22 02:48:56;;;;;;;;;;;23.70;57.30;;;;;;5136155;27;20367;-59
2021/07/22 02:51:23;;;;;;;;;;;23.70;57.30;;;;;;5134702;27;19976;-59
2021/07/22 02:53:50;;;;;;;;;;;23.70;57.40;;;;;;5135875;27;19923;-59
2021/07/22 02:56:17;;;;;;;;;;;23.60;57.30;;;;;;5135085;27;19938;-59
2021/07/22 02:58:44;;;;;;;;;;;23.70;57.40;;;;;;5117741;27;19923;-59
2021/07/22 03:01:11;;;;;;;;;;;23.70;57.40;;;;;;5135767;27;20340;-59
2021/07/22 03:03:39;;;;;;;;;;;23.70;57.40;;;;;;5136066;27;19928;-59
2021/07/22 03:06:06;;;;;;;;;;;23.60;57.30;;;;;;5135359;27;19928;-59
2021/07/22 03:08:33;;;;;;;;;;;23.70;57.40;;;;;;5134622;27;19923;-59
2021/07/22 03:11:00;;;;;;;;;;;23.60;57.30;;;;;;5103232;28;20379;-59
2021/07/22 03:13:27;;;;;;;;;;;23.60;57.30;;;;;;5130865;27;19923;-59
2021/07/22 03:15:54;;;;;;;;;;;23.60;57.30;;;;;;5135857;27;19991;-59
2021/07/22 03:18:21;;;;;;;;;;;23.60;57.30;;;;;;5134349;27;20379;-59
2021/07/22 03:20:48;;;;;;;;;;;23.60;57.30;;;;;;5133194;27;19992;-59
2021/07/22 03:23:16;;;;;;;;;;;23.60;57.30;;;;;;5134303;27;19988;-59
2021/07/22 03:25:43;;;;;;;;;;;23.60;57.30;;;;;;5134325;27;19931;-59
2021/07/22 03:28:10;;;;;;;;;;;23.60;57.30;;;;;;5133059;27;20332;-59
2021/07/22 03:30:39;;;;;;;;;;;23.50;57.30;;;;;;5134242;27;20260;-59
2021/07/22 03:33:06;;;;;;;;;;;23.50;57.30;;;;;;5128373;27;19924;-59
2021/07/22 03:35:33;;;;;;;;;;;23.50;57.30;;;;;;5117088;27;19927;-59
2021/07/22 03:38:01;;;;;;;;;;;23.50;57.30;;;;;;5122258;27;19927;-59
2021/07/22 03:40:29;;;;;;;;;;;23.50;57.30;;;;;;5132908;27;19931;-59
2021/07/22 03:42:56;;;;;;;;;;;23.50;57.30;;;;;;5135041;27;19972;-59
2021/07/22 03:45:24;;;;;;;;;;;23.50;57.10;;;;;;5134221;27;19923;-59
2021/07/22 03:47:52;;;;;;;;;;;23.50;57.30;;;;;;5132753;27;19924;-59
2021/07/22 03:50:19;;;;;;;;;;;23.50;57.20;;;;;;5135257;27;19927;-59
2021/07/22 03:52:52;;;;;;;;;;;23.50;57.10;;;;;;5134973;27;19973;-59
2021/07/22 03:55:19;;;;;;;;;;;23.50;57.10;;;;;;5132984;27;19976;-59
2021/07/22 03:57:45;;;;;;;;;;;23.50;56.90;;;;;;5134690;27;19923;-59
2021/07/22 04:00:13;;;;;;;;;;;23.60;57.00;;;;;;5116346;27;19924;-59
2021/07/22 04:02:41;;;;;;;;;;;23.60;57.00;;;;;;5134013;27;19976;-59
2021/07/22 04:05:08;;;;;;;;;;;23.60;56.80;;;;;;5118268;27;19928;-59
2021/07/22 04:07:35;;;;;;;;;;;23.60;56.80;;;;;;5130703;27;19923;-59
2021/07/22 04:10:02;;;;;;;;;;;23.60;56.80;;;;;;5134529;27;19927;-59
2021/07/22 04:12:29;;;;;;;;;;;23.60;56.70;;;;;;5115193;27;19923;-59
2021/07/22 04:14:56;;;;;;;;;;;23.60;56.70;;;;;;5133051;27;19923;-59
2021/07/22 04:17:28;;;;;;;;;;;23.60;56.70;;;;;;5133042;27;19949;-59
2021/07/22 04:19:56;;;;;;;;;;;23.60;56.70;;;;;;5133419;27;20340;-59
2021/07/22 04:22:23;;;;;;;;;;;23.60;56.60;;;;;;5132134;27;19928;-59
2021/07/22 04:24:50;;;;;;;;;;;23.60;56.70;;;;;;5132848;27;19928;-59
2021/07/22 04:27:19;;;;;;;;;;;23.60;56.60;;;;;;5132898;27;20379;-59
2021/07/22 04:29:47;;;;;;;;;;;23.60;56.50;;;;;;5132537;27;19964;-59
2021/07/22 04:32:14;;;;;;;;;;;23.60;56.60;;;;;;5133339;27;20295;-58
2021/07/22 04:34:41;;;;;;;;;;;23.60;56.60;;;;;;5134405;27;19923;-59
2021/07/22 04:37:08;;;;;;;;;;;23.70;56.60;;;;;;5124300;27;19928;-59
2021/07/22 04:39:35;;;;;;;;;;;23.70;56.50;;;;;;5134263;27;19923;-59
2021/07/22 04:42:02;;;;;;;;;;;23.70;56.40;;;;;;5134258;27;19923;-59
2021/07/22 04:44:31;;;;;;;;;;;23.70;56.40;;;;;;5131192;27;20320;-59
2021/07/22 04:46:58;;;;;;;;;;;23.80;56.40;;;;;;5116512;27;19931;-59
2021/07/22 04:49:25;;;;;;;;;;;23.80;56.20;;;;;;5133063;27;19977;-59
2021/07/22 04:51:52;;;;;;;;;;;23.80;56.20;;;;;;5132430;27;19924;-59
2021/07/22 04:54:19;;;;;;;;;;;23.90;56.10;;;;;;5115292;28;20002;-59
2021/07/22 04:56:47;;;;;;;;;;;23.90;56.00;;;;;;5132420;27;19927;-59
2021/07/22 04:59:13;;;;;;;;;;;23.90;56.00;;;;;;5115095;27;19923;-59
2021/07/22 05:01:40;;;;;;;;;;;23.90;55.90;;;;;;5132802;27;20275;-59
2021/07/22 05:04:08;;;;;;;;;;;24.00;55.90;;;;;;5132518;27;19930;-59
2021/07/22 05:06:35;;;;;;;;;;;24.00;55.80;;;;;;5118699;27;19931;-59
2021/07/22 05:09:02;;;;;;;;;;;24.00;55.80;;;;;;5129199;27;20375;-59
2021/07/22 05:11:30;;;;;;;;;;;24.00;55.80;;;;;;5130759;27;20006;-60
2021/07/22 05:13:57;;;;;;;;;;;24.10;55.90;;;;;;5133485;27;19927;-59
2021/07/22 05:16:24;;;;;;;;;;;24.10;55.90;;;;;;5133493;27;20457;-59
2021/07/22 05:18:51;;;;;;;;;;;24.10;55.80;;;;;;5130658;27;19923;-59
2021/07/22 05:21:19;;;;;;;;;;;24.10;55.90;;;;;;5132269;28;19924;-59
2021/07/22 05:23:46;;;;;;;;;;;24.10;56.50;;;;;;5132359;28;19927;-59
2021/07/22 05:26:13;;;;;;;;;;;24.10;55.80;;;;;;5132097;28;19945;-59
2021/07/22 05:28:40;;;;;;;;;;;24.20;55.80;;;;;;5132001;28;19924;-59
2021/07/22 05:31:11;;;;;;;;;;;24.20;55.70;;;;;;5133255;28;19930;-59
2021/07/22 05:33:39;;;;;;;;;;;24.20;55.70;;;;;;5132056;28;20003;-59
2021/07/22 05:36:07;;;;;;;;;;;24.30;55.70;;;;;;5129226;28;19931;-59
2021/07/22 05:38:35;;;;;;;;;;;24.30;55.70;;;;;;5133318;28;19968;-59
2021/07/22 05:41:06;;;;;;;;;;;24.30;55.70;;;;;;5131643;28;19927;-59
2021/07/22 05:43:33;;;;;;;;;;;24.40;55.70;;;;;;5132360;28;19923;-59
2021/07/22 05:46:00;;;;;;;;;;;24.40;55.80;;;;;;5131742;28;19923;-59
2021/07/22 05:48:28;;;;;;;;;;;24.40;55.70;;;;;;5131633;28;19930;-59
2021/07/22 05:50:58;;;;;;;;;;;24.40;55.70;;;;;;5131997;28;19976;-59
2021/07/22 05:53:25;;;;;;;;;;;24.40;55.60;;;;;;5132571;28;19968;-59
2021/07/22 05:55:55;;;;;;;;;;;24.40;55.60;;;;;;5132243;28;19973;-59
2021/07/22 05:58:22;;;;;;;;;;;24.50;55.60;;;;;;5132753;28;19955;-59
2021/07/22 06:00:49;;;;;;;;;;;24.50;55.60;;;;;;5131105;28;20084;-59
2021/07/22 06:03:16;;;;;;;;;;;24.50;55.60;;;;;;5113733;28;19923;-60
2021/07/22 06:05:43;;;;;;;;;;;24.50;55.60;;;;;;5112733;28;19930;-60
2021/07/22 06:08:10;;;;;;;;;;;24.50;55.70;;;;;;5116622;28;19973;-60
2021/07/22 06:10:38;;;;;;;;;;;24.40;55.70;;;;;;5129833;28;19923;-60
2021/07/22 06:13:05;;;;;;;;;;;24.40;55.80;;;;;;5113503;28;19924;-60
2021/07/22 06:15:32;;;;;;;;;;;24.40;55.70;;;;;;5131408;28;20386;-59
2021/07/22 06:17:59;;;;;;;;;;;24.40;55.70;;;;;;5132895;28;20455;-60
2021/07/22 06:20:26;;;;;;;;;;;24.50;55.80;;;;;;5133186;28;20332;-60
2021/07/22 06:22:53;;;;;;;;;;;24.50;55.70;;;;;;5132649;28;20002;-60
2021/07/22 06:25:20;;;;;;;;;;;24.50;55.50;;;;;;5131545;28;20288;-60
2021/07/22 06:27:47;;;;;;;;;;;24.50;55.50;;;;;;5132957;28;19930;-59
2021/07/22 06:30:14;;;;;;;;;;;24.50;55.60;;;;;;5131142;27;19924;-60
2021/07/22 06:32:41;;;;;;;;;;;24.60;55.70;;;;;;5116614;27;19924;-60
2021/07/22 06:35:08;;;;;;;;;;;24.60;55.60;;;;;;5135330;27;19923;-60
2021/07/22 06:37:49;;;;;;;;;;;24.60;55.50;;;;;;5118235;27;19931;-60
2021/07/22 06:40:16;;;;;;;;;;;24.70;55.60;;;;;;5119767;27;19924;-60
2021/07/22 06:42:44;;;;;;;;;;;24.70;55.80;;;;;;5121111;27;19971;-60
2021/07/22 06:45:11;;;;;;;;;;;24.70;55.30;;;;;;5136139;27;19923;-60
2021/07/22 06:47:39;;;;;;;;;;;24.70;55.10;;;;;;5133205;27;20359;-60
2021/07/22 06:50:10;;;;;;;;;;;24.70;55.00;;;;;;5135507;27;20006;-60
2021/07/22 06:52:37;;;;;;;;;;;24.70;55.10;;;;;;5134510;27;19923;-60
2021/07/22 06:55:05;;;;;;;;;;;24.70;55.10;;;;;;5134904;27;19929;-60
2021/07/22 06:57:32;;;;;;;;;;;24.70;55.00;;;;;;5134737;27;19923;-60
2021/07/22 06:59:59;;;;;;;;;;;24.70;54.90;;;;;;5134956;27;20394;-60
2021/07/22 07:02:27;;;;;;;;;;;24.80;54.90;;;;;;5134653;27;19930;-60
2021/07/22 07:04:54;;;;;;;;;;;24.80;54.80;;;;;;5135110;27;20286;-60
2021/07/22 07:07:21;;;;;;;;;;;24.80;54.80;;;;;;5133096;27;20002;-60
2021/07/22 07:09:48;;;;;;;;;;;24.90;54.80;;;;;;5133509;27;20333;-60
2021/07/22 07:12:15;;;;;;;;;;;24.90;54.70;;;;;;5135422;27;19966;-60
2021/07/22 07:14:43;;;;;;;;;;;24.90;54.70;;;;;;5132993;27;19923;-59
2021/07/22 07:17:10;;;;;;;;;;;24.90;54.60;;;;;;5133949;27;19935;-59
2021/07/22 07:19:37;;;;;;;;;;;24.90;54.40;;;;;;5135163;27;19975;-59
2021/07/22 07:22:04;;;;;;;;;;;24.90;54.40;;;;;;5134284;27;20187;-59
2021/07/22 07:24:31;;;;;;;;;;;24.90;55.00;;;;;;5134155;27;20006;-59
2021/07/22 07:26:58;;;;;;;;;;;24.90;54.40;;;;;;5135187;27;19980;-57
2021/07/22 07:29:25;;;;;;;;;;;25.00;54.60;;;;;;5133231;27;19930;-58
2021/07/22 07:31:57;;;;;;;;;;;25.00;54.70;;;;;;5135225;27;20401;-61
2021/07/22 07:34:24;;;;;;;;;;;25.00;55.50;;;;;;5115294;27;20394;-58
2021/07/22 07:36:50;;;;;;;;;;;25.00;55.50;;;;;;5127843;27;19923;-58
2021/07/22 07:39:18;;;;;;;;;;;25.00;55.70;;;;;;5132735;27;19972;-60
2021/07/22 07:41:45;;;;;;;;;;;25.10;55.20;;;;;;5134442;27;19923;-61
2021/07/22 07:44:12;;;;;;;;;;;25.10;55.60;;;;;;5133564;27;19931;-59
2021/07/22 07:46:39;;;;;;;;;;;25.20;56.10;;;;;;5133967;27;19935;-58
2021/07/22 07:49:07;;;;;;;;;;;25.20;56.30;;;;;;5133674;27;19923;-60
2021/07/22 07:51:34;;;;;;;;;;;25.20;55.50;;;;;;5098536;27;19935;-62
2021/07/22 07:54:02;;;;;;;;;;;25.30;55.70;;;;;;5111559;28;20376;-61
2021/07/22 07:56:29;;;;;;;;;;;25.30;55.60;;;;;;5114420;28;20280;-61
2021/07/22 07:58:55;;;;;;;;;;;25.30;54.60;;;;;;5113757;28;19924;-63
2021/07/22 08:01:25;;;;;;;;;;;25.40;54.70;;;;;;5113371;28;19949;-61
2021/07/22 08:03:53;;;;;;;;;;;25.40;54.70;;;;;;5111389;28;19991;-62
2021/07/22 08:06:20;;;;;;;;;;;25.40;54.40;;;;;;5111357;28;19980;-59
2021/07/22 08:08:47;;;;;;;;;;;25.40;54.20;;;;;;5113146;28;19924;-59
2021/07/22 08:11:14;;;;;;;;;;;25.50;54.50;;;;;;5113943;28;19924;-63
2021/07/22 08:13:41;;;;;;;;;;;25.50;55.10;;;;;;5114141;28;19923;-63
2021/07/22 08:16:13;;;;;;;;;;;25.60;54.90;;;;;;5113800;28;20351;-60
2021/07/22 08:18:40;;;;;;;;;;;25.60;54.20;;;;;;5113783;28;19931;-58
2021/07/22 08:21:07;;;;;;;;;;;25.60;54.60;;;;;;5103388;28;19924;-61
2021/07/22 08:23:34;;;;;;;;;;;25.60;54.60;;;;;;5105359;28;20276;-58
2021/07/22 08:26:01;;;;;;;;;;;25.60;54.60;;;;;;5112455;28;19923;-61
2021/07/22 08:28:28;;;;;;;;;;;25.70;54.60;;;;;;5103816;28;19947;-65
2021/07/22 08:30:55;;;;;;;;;;;25.70;55.30;;;;;;5094856;28;19969;-61
2021/07/22 08:33:22;;;;;;;;;;;25.70;54.80;;;;;;5102230;28;19999;-58
2021/07/22 08:35:49;;;;;;;;;;;25.70;55.20;;;;;;5110775;28;19928;-56
2021/07/22 08:38:16;;;;;;;;;;;25.80;55.00;;;;;;5113786;28;20283;-59
2021/07/22 08:40:43;;;;;;;;;;;25.80;54.80;;;;;;5112147;28;19924;-59
2021/07/22 08:43:10;;;;;;;;;;;25.90;54.80;;;;;;5112616;28;19924;-59
2021/07/22 08:45:38;;;;;;;;;;;25.90;53.80;;;;;;5113291;28;19973;-60
2021/07/22 08:48:05;;;;;;;;;;;25.90;54.10;;;;;;5112216;28;19927;-58
2021/07/22 08:50:32;;;;;;;;;;;25.90;54.40;;;;;;5113335;28;20213;-66
2021/07/22 08:52:59;;;;;;;;;;;25.90;54.30;;;;;;5109558;28;19923;-61
2021/07/22 08:55:26;;;;;;;;;;;26.00;53.90;;;;;;5130377;27;19923;-63
2021/07/22 08:57:55;;;;;;;;;;;26.00;53.50;;;;;;5132885;27;20428;-53
2021/07/22 09:00:23;;;;;;;;;;;26.00;53.20;;;;;;5133349;27;20415;-61
2021/07/22 09:02:51;;;;;;;;;;;26.00;53.40;;;;;;5133384;27;19927;-61
2021/07/22 09:05:18;;;;;;;;;;;26.00;52.50;;;;;;5114264;27;19923;-61
2021/07/22 09:07:45;;;;;;;;;;;26.00;52.60;;;;;;5130833;27;19969;-61
2021/07/22 09:10:12;;;;;;;;;;;26.00;52.40;;;;;;5113764;27;19999;-61
2021/07/22 09:12:41;;;;;;;;;;;26.00;52.20;;;;;;5131894;27;19923;-60
2021/07/22 09:15:10;;;;;;;;;;;26.00;52.20;;;;;;5132132;27;20382;-61
2021/07/22 09:17:57;;;;;;;;;;;26.00;52.20;;;;;;5133609;28;19927;-61
2021/07/22 09:20:31;;;;;;;;;;;26.10;52.20;;;;;;5119366;28;19924;-60
2021/07/22 09:23:02;;;;;;;;;;;26.10;52.90;;;;;;5108133;28;20264;-60
2021/07/22 09:25:42;;;;;;;;;;;26.10;53.10;;;;;;5133346;28;19924;-57
2021/07/22 09:28:13;;;;;;;;;;;26.10;55.40;;;;;;5132836;28;19931;-57
2021/07/22 09:30:53;;;;;;;;;;;26.10;53.40;;;;;;5132952;28;19931;-59
2021/07/22 09:33:39;;;;;;;;;;;26.20;52.70;;;;;;5133143;28;19976;-65
2021/07/22 09:36:08;;;;;;;;;;;26.20;53.00;;;;;;5104493;28;19927;-64
2021/07/22 09:38:35;;;;;;;;;;;26.20;53.00;;;;;;5116545;28;20352;-55
2021/07/22 09:41:02;;;;;;;;;;;26.20;53.20;;;;;;5128748;28;19930;-59
2021/07/22 09:43:39;;;;;;;;;;;26.20;53.50;;;;;;5131378;28;20027;-64
2021/07/22 09:46:06;;;;;;;;;;;26.20;53.50;;;;;;5133018;28;20000;-62
2021/07/22 09:48:34;;;;;;;;;;;26.30;52.70;;;;;;5131718;28;19972;-59
2021/07/22 09:51:01;;;;;;;;;;;26.30;53.40;;;;;;5132253;28;19924;-62
2021/07/22 09:53:28;;;;;;;;;;;26.30;53.50;;;;;;5114380;28;19924;-60
2021/07/22 09:55:56;;;;;;;;;;;26.30;54.00;;;;;;5132901;28;19923;-57
2021/07/22 09:58:23;;;;;;;;;;;26.30;53.50;;;;;;5132784;28;19924;-54
2021/07/22 10:00:51;;;;;;;;;;;26.40;53.60;;;;;;5133338;28;19934;-57
2021/07/22 10:03:21;;;;;;;;;;;26.40;53.80;;;;;;5131775;28;20026;-59
2021/07/22 10:05:51;;;;;;;;;;;26.40;55.00;;;;;;5115609;27;19980;-56
2021/07/22 10:08:19;;;;;;;;;;;26.40;54.00;;;;;;5135750;27;20374;-53
2021/07/22 10:10:50;;;;;;;;;;;26.50;54.30;;;;;;5137087;27;19931;-50
2021/07/22 10:13:22;;;;;;;;;;;26.50;54.50;;;;;;5136624;27;20017;-52
2021/07/22 10:15:49;;;;;;;;;;;26.50;54.80;;;;;;5137153;27;20276;-50
2021/07/22 10:18:20;;;;;;;;;;;26.60;54.40;;;;;;5135349;27;19931;-50
2021/07/22 10:20:49;;;;;;;;;;;26.60;54.30;;;;;;5133004;27;19924;-51
2021/07/22 10:23:16;;;;;;;;;;;26.60;53.70;;;;;;5118341;27;19923;-54
2021/07/22 10:25:43;;;;;;;;;;;26.60;54.10;;;;;;5118680;27;20018;-54
2021/07/22 10:28:11;;;;;;;;;;;26.60;53.30;;;;;;5118793;27;19923;-53
2021/07/22 10:30:38;;;;;;;;;;;26.60;52.70;;;;;;5117355;27;19932;-55
2021/07/22 10:33:05;;;;;;;;;;;26.60;53.10;;;;;;5135886;27;19927;-55
2021/07/22 10:35:32;;;;;;;;;;;26.60;51.60;;;;;;5131151;27;19924;-55
2021/07/22 10:38:25;;;;;;;;;;;26.60;52.30;;;;;;5118940;27;20388;-51
2021/07/22 10:40:53;;;;;;;;;;;26.60;52.10;;;;;;5134754;27;19959;-53
2021/07/22 10:43:39;;;;;;;;;;;26.60;52.20;;;;;;5136777;27;19927;-53
2021/07/22 10:46:10;;;;;;;;;;;26.60;52.10;;;;;;5119142;27;20029;-51
2021/07/22 10:48:38;;;;;;;;;;;26.60;52.20;;;;;;5118972;27;20324;-52
2021/07/22 10:51:09;;;;;;;;;;;26.60;52.10;;;;;;5136414;27;20006;-55
2021/07/22 10:53:36;;;;;;;;;;;26.60;51.90;;;;;;5135900;27;19928;-51
2021/07/22 10:56:04;;;;;;;;;;;26.60;51.90;;;;;;5135277;27;20541;-48
2021/07/22 10:58:34;;;;;;;;;;;26.60;51.80;;;;;;5117729;27;19927;-56
2021/07/22 11:01:02;;;;;;;;;;;26.60;51.70;;;;;;5134012;27;19934;-61
2021/07/22 11:03:32;;;;;;;;;;;26.50;52.10;;;;;;5135086;27;20344;-56
2021/07/22 11:06:05;;;;;;;;;;;26.60;51.90;;;;;;5135636;27;19969;-51
2021/07/22 11:08:33;;;;;;;;;;;26.50;51.90;;;;;;5134396;27;19923;-56
2021/07/22 11:11:03;;;;;;;;;;;26.60;52.20;;;;;;5135961;27;19928;-53
2021/07/22 11:13:33;;;;;;;;;;;26.50;51.70;;;;;;5134161;27;19923;-55
2021/07/22 11:16:01;;;;;;;;;;;26.50;51.90;;;;;;5135492;27;19955;-54
2021/07/22 11:18:43;;;;;;;;;;;26.50;51.80;;;;;;5135299;27;19969;-53
2021/07/22 11:21:11;;;;;;;;;;;26.50;50.90;;;;;;5134209;27;19935;-53
2021/07/22 11:23:40;;;;;;;;;;;26.50;51.30;;;;;;5121560;27;19927;-53
2021/07/22 11:26:07;;;;;;;;;;;26.50;51.00;;;;;;5129591;27;19923;-54
2021/07/22 11:28:35;;;;;;;;;;;26.50;51.10;;;;;;5135524;27;19987;-53
2021/07/22 11:31:07;;;;;;;;;;;26.50;50.90;;;;;;5134238;27;19931;-53
2021/07/22 11:33:37;;;;;;;;;;;26.50;51.10;;;;;;5134514;27;19924;-54
2021/07/22 11:36:08;;;;;;;;;;;26.40;50.80;;;;;;5125363;27;19924;-55
2021/07/22 11:38:36;;;;;;;;;;;26.40;50.60;;;;;;5127648;27;19973;-57
2021/07/22 11:41:09;;;;;;;;;;;26.40;50.70;;;;;;5135198;27;19923;-57
2021/07/22 11:43:46;;;;;;;;;;;26.40;50.30;;;;;;5134300;27;19923;-54
2021/07/22 11:46:17;;;;;;;;;;;26.40;50.50;;;;;;5132835;27;19927;-56
2021/07/22 11:48:44;;;;;;;;;;;26.40;50.50;;;;;;5134288;27;19927;-53
2021/07/22 11:51:15;;;;;;;;;;;26.40;50.50;;;;;;5132500;27;20394;-55
2021/07/22 11:53:42;;;;;;;;;;;26.40;50.70;;;;;;5132379;27;19932;-52
2021/07/22 11:56:13;;;;;;;;;;;26.40;50.70;;;;;;5134186;27;20003;-54
2021/07/22 11:58:44;;;;;;;;;;;26.40;50.60;;;;;;5133664;27;19923;-55
2021/07/22 12:01:11;;;;;;;;;;;26.40;50.50;;;;;;5135179;27;19935;-55
2021/07/22 12:03:38;;;;;;;;;;;26.40;50.70;;;;;;5133540;27;19924;-58
2021/07/22 12:06:06;;;;;;;;;;;26.40;50.90;;;;;;5133586;27;19927;-54
2021/07/22 12:08:32;;;;;;;;;;;26.40;51.10;;;;;;5134789;27;19969;-54
2021/07/22 12:11:00;;;;;;;;;;;26.40;51.10;;;;;;5134478;27;19968;-55
2021/07/22 12:13:44;;;;;;;;;;;26.40;50.70;;;;;;5133214;27;19967;-55
2021/07/22 12:16:12;;;;;;;;;;;26.30;50.30;;;;;;5116810;27;19923;-52
2021/07/22 12:18:39;;;;;;;;;;;26.40;50.40;;;;;;5133282;27;20284;-54
2021/07/22 12:21:17;;;;;;;;;;;26.30;50.40;;;;;;5134484;27;19972;-53
2021/07/22 12:23:44;;;;;;;;;;;26.30;50.20;;;;;;5133179;27;19976;-56
2021/07/22 12:26:11;;;;;;;;;;;26.40;50.30;;;;;;5132939;27;19927;-53
2021/07/22 12:28:38;;;;;;;;;;;26.40;50.10;;;;;;5115948;27;20013;-56
2021/07/22 12:31:15;;;;;;;;;;;26.30;50.00;;;;;;5133427;27;20336;-55
2021/07/22 12:33:42;;;;;;;;;;;26.40;50.10;;;;;;5134108;27;19923;-51
2021/07/22 12:36:20;;;;;;;;;;;26.40;50.10;;;;;;5123599;27;19924;-56
2021/07/22 12:39:07;;;;;;;;;;;26.30;50.20;;;;;;5133761;27;20383;-51
2021/07/22 12:41:33;;;;;;;;;;;26.40;50.20;;;;;;5116590;27;19936;-52
2021/07/22 12:44:00;;;;;;;;;;;26.40;50.10;;;;;;5133492;27;19944;-52
2021/07/22 12:46:31;;;;;;;;;;;26.30;50.20;;;;;;5133574;27;20014;-55
2021/07/22 12:48:59;;;;;;;;;;;26.30;50.00;;;;;;5115900;27;19928;-54
2021/07/22 12:51:26;;;;;;;;;;;26.30;50.20;;;;;;5134347;27;19969;-55
2021/07/22 12:53:56;;;;;;;;;;;26.30;50.50;;;;;;5117165;27;20291;-51
2021/07/22 12:56:24;;;;;;;;;;;26.30;50.60;;;;;;5132932;27;19972;-55
2021/07/22 12:58:51;;;;;;;;;;;26.40;50.60;;;;;;5133762;27;19923;-52
2021/07/22 13:01:21;;;;;;;;;;;26.40;50.70;;;;;;5131585;27;20209;-52
2021/07/22 13:03:49;;;;;;;;;;;26.30;50.60;;;;;;5133578;27;19969;-53
2021/07/22 13:06:17;;;;;;;;;;;26.40;50.70;;;;;;5114184;27;19946;-54
2021/07/22 13:08:44;;;;;;;;;;;26.30;50.70;;;;;;5115755;27;19924;-51
2021/07/22 13:11:13;;;;;;;;;;;26.40;50.90;;;;;;5132117;27;19935;-53
2021/07/22 13:13:41;;;;;;;;;;;26.40;51.60;;;;;;5123481;27;19924;-53
2021/07/22 13:16:09;;;;;;;;;;;26.30;50.80;;;;;;5115927;28;19923;-52
2021/07/22 13:18:37;;;;;;;;;;;26.40;50.90;;;;;;5124966;28;20484;-52
2021/07/22 13:21:07;;;;;;;;;;;26.40;51.00;;;;;;5132396;28;19929;-53
2021/07/22 13:23:34;;;;;;;;;;;26.40;51.10;;;;;;5115233;28;20403;-53
2021/07/22 13:26:02;;;;;;;;;;;26.40;51.10;;;;;;5133592;28;20260;-53
2021/07/22 13:28:29;;;;;;;;;;;26.40;51.10;;;;;;5133339;28;19930;-53
2021/07/22 13:30:56;;;;;;;;;;;26.40;51.50;;;;;;5130823;28;19949;-52
2021/07/22 13:33:23;;;;;;;;;;;26.40;50.90;;;;;;5132212;28;19927;-54
2021/07/22 13:35:50;;;;;;;;;;;26.40;50.70;;;;;;5131186;28;19996;-52
2021/07/22 13:38:31;;;;;;;;;;;26.40;50.70;;;;;;5133181;28;20382;-56
2021/07/22 13:40:59;;;;;;;;;;;26.40;50.50;;;;;;5134817;27;19927;-52
2021/07/22 13:43:26;;;;;;;;;;;26.40;50.60;;;;;;5136182;27;19927;-55
2021/07/22 13:45:53;;;;;;;;;;;26.30;50.50;;;;;;5137384;27;19927;-54
2021/07/22 13:48:20;;;;;;;;;;;26.40;50.60;;;;;;5136436;27;20336;-53
2021/07/22 13:50:47;;;;;;;;;;;26.30;50.50;;;;;;5137698;27;19927;-54
2021/07/22 13:53:14;;;;;;;;;;;26.40;50.50;;;;;;5136414;27;19923;-53
2021/07/22 13:55:41;;;;;;;;;;;26.30;50.60;;;;;;5136143;27;19931;-53
2021/07/22 13:58:08;;;;;;;;;;;26.40;50.60;;;;;;5136211;27;19923;-50
2021/07/22 14:00:35;;;;;;;;;;;26.40;50.70;;;;;;5117392;27;20382;-56
2021/07/22 14:03:04;;;;;;;;;;;26.40;50.60;;;;;;5120921;27;20329;-54
2021/07/22 14:05:32;;;;;;;;;;;26.30;50.60;;;;;;5135025;27;20040;-54
2021/07/22 14:08:00;;;;;;;;;;;26.40;50.70;;;;;;5122271;27;20303;-55
2021/07/22 14:10:27;;;;;;;;;;;26.40;50.70;;;;;;5133079;27;19923;-54
2021/07/22 14:12:55;;;;;;;;;;;26.40;50.80;;;;;;5136026;27;19924;-54
2021/07/22 14:15:23;;;;;;;;;;;26.40;50.80;;;;;;5136891;27;19934;-57
2021/07/22 14:17:50;;;;;;;;;;;26.40;50.60;;;;;;5116184;27;20453;-55
2021/07/22 14:20:17;;;;;;;;;;;26.40;50.70;;;;;;5134247;27;19923;-56
2021/07/22 14:22:44;;;;;;;;;;;26.40;50.80;;;;;;5118495;27;20428;-55